sensor_id;sensor_type;location;lat;lon;timestamp;P1;durP1;ratioP1;P2;durP2;ratioP2
75499;SDS011;64076;51.466;7.260;2023-12-20T00:00:16;12.97;;;9.27;;
75499;SDS011;64076;51.466;7.260;2023-12-20T00:02:42;12.45;;;9.45;;
75499;SDS011;64076;51.466;7.260;2023-12-20T00:05:11;12.05;;;9.20;;
75499;SDS011;64076;51.466;7.260;2023-12-20T00:07:38;12.10;;;9.32;;
75499;SDS011;64076;51.466;7.260;2023-12-20T00:10:04;13.37;;;9.37;;
75499;SDS011;64076;51.466;7.260;2023-12-20T00:12:29;15.10;;;9.77;;
75499;SDS011;64076;51.466;7.260;2023-12-20T00:14:55;11.60;;;8.83;;
75499;SDS011;64076;51.466;7.260;2023-12-20T00:17:20;13.07;;;9.77;;
75499;SDS011;64076;51.466;7.260;2023-12-20T00:19:46;14.20;;;9.10;;
75499;SDS011;64076;51.466;7.260;2023-12-20T00:22:11;14.17;;;10.13;;
75499;SDS011;64076;51.466;7.260;2023-12-20T00:24:37;13.13;;;9.40;;
75499;SDS011;64076;51.466;7.260;2023-12-20T00:27:02;13.30;;;9.20;;
75499;SDS011;64076;51.466;7.260;2023-12-20T00:29:28;13.48;;;9.20;;
75499;SDS011;64076;51.466;7.260;2023-12-20T00:31:54;15.13;;;9.80;;
75499;SDS011;64076;51.466;7.260;2023-12-20T00:34:19;13.02;;;9.48;;
75499;SDS011;64076;51.466;7.260;2023-12-20T00:36:44;13.17;;;10.23;;
75499;SDS011;64076;51.466;7.260;2023-12-20T00:39:10;14.63;;;10.03;;
75499;SDS011;64076;51.466;7.260;2023-12-20T00:41:35;15.60;;;9.97;;
75499;SDS011;64076;51.466;7.260;2023-12-20T00:44:01;14.02;;;9.48;;
75499;SDS011;64076;51.466;7.260;2023-12-20T00:46:26;15.07;;;10.00;;
75499;SDS011;64076;51.466;7.260;2023-12-20T00:48:52;12.47;;;9.33;;
75499;SDS011;64076;51.466;7.260;2023-12-20T00:51:17;13.65;;;9.57;;
75499;SDS011;64076;51.466;7.260;2023-12-20T00:53:43;14.00;;;9.93;;
75499;SDS011;64076;51.466;7.260;2023-12-20T00:56:09;15.65;;;10.63;;
75499;SDS011;64076;51.466;7.260;2023-12-20T00:58:34;15.47;;;10.50;;
75499;SDS011;64076;51.466;7.260;2023-12-20T01:01:00;15.43;;;10.53;;
75499;SDS011;64076;51.466;7.260;2023-12-20T01:03:26;16.40;;;10.80;;
75499;SDS011;64076;51.466;7.260;2023-12-20T01:05:51;15.70;;;10.80;;
75499;SDS011;64076;51.466;7.260;2023-12-20T01:08:17;15.10;;;10.23;;
75499;SDS011;64076;51.466;7.260;2023-12-20T01:10:42;15.37;;;10.57;;
75499;SDS011;64076;51.466;7.260;2023-12-20T01:13:08;14.70;;;10.30;;
75499;SDS011;64076;51.466;7.260;2023-12-20T01:15:33;16.85;;;10.35;;
75499;SDS011;64076;51.466;7.260;2023-12-20T01:17:59;16.77;;;10.73;;
75499;SDS011;64076;51.466;7.260;2023-12-20T01:20:24;14.80;;;9.90;;
75499;SDS011;64076;51.466;7.260;2023-12-20T01:22:50;17.27;;;11.40;;
75499;SDS011;64076;51.466;7.260;2023-12-20T01:25:16;14.83;;;10.00;;
75499;SDS011;64076;51.466;7.260;2023-12-20T01:27:41;15.50;;;10.70;;
75499;SDS011;64076;51.466;7.260;2023-12-20T01:30:07;14.97;;;9.93;;
75499;SDS011;64076;51.466;7.260;2023-12-20T01:32:33;15.95;;;10.43;;
75499;SDS011;64076;51.466;7.260;2023-12-20T01:34:58;15.47;;;10.30;;
75499;SDS011;64076;51.466;7.260;2023-12-20T01:37:24;14.47;;;9.90;;
75499;SDS011;64076;51.466;7.260;2023-12-20T01:39:51;15.85;;;10.88;;
75499;SDS011;64076;51.466;7.260;2023-12-20T01:42:18;16.17;;;10.60;;
75499;SDS011;64076;51.466;7.260;2023-12-20T01:44:43;14.27;;;9.73;;
75499;SDS011;64076;51.466;7.260;2023-12-20T01:47:09;16.10;;;10.18;;
75499;SDS011;64076;51.466;7.260;2023-12-20T01:49:35;13.93;;;9.83;;
75499;SDS011;64076;51.466;7.260;2023-12-20T01:52:01;13.05;;;9.55;;
75499;SDS011;64076;51.466;7.260;2023-12-20T01:54:27;16.35;;;10.57;;
75499;SDS011;64076;51.466;7.260;2023-12-20T01:56:54;14.98;;;9.30;;
75499;SDS011;64076;51.466;7.260;2023-12-20T01:59:20;14.60;;;10.03;;
75499;SDS011;64076;51.466;7.260;2023-12-20T02:01:46;16.23;;;10.05;;
75499;SDS011;64076;51.466;7.260;2023-12-20T02:04:11;16.65;;;10.68;;
75499;SDS011;64076;51.466;7.260;2023-12-20T02:06:37;14.83;;;9.83;;
75499;SDS011;64076;51.466;7.260;2023-12-20T02:09:08;15.73;;;10.20;;
75499;SDS011;64076;51.466;7.260;2023-12-20T02:11:33;15.60;;;9.70;;
75499;SDS011;64076;51.466;7.260;2023-12-20T02:14:01;15.77;;;10.27;;
75499;SDS011;64076;51.466;7.260;2023-12-20T02:16:26;16.02;;;10.00;;
75499;SDS011;64076;51.466;7.260;2023-12-20T02:18:52;14.37;;;9.60;;
75499;SDS011;64076;51.466;7.260;2023-12-20T02:21:24;15.05;;;9.85;;
75499;SDS011;64076;51.466;7.260;2023-12-20T02:23:50;15.73;;;10.38;;
75499;SDS011;64076;51.466;7.260;2023-12-20T02:26:16;14.07;;;9.37;;
75499;SDS011;64076;51.466;7.260;2023-12-20T02:28:43;16.27;;;10.38;;
75499;SDS011;64076;51.466;7.260;2023-12-20T02:31:09;15.13;;;9.93;;
75499;SDS011;64076;51.466;7.260;2023-12-20T02:33:34;16.73;;;10.02;;
75499;SDS011;64076;51.466;7.260;2023-12-20T02:36:00;14.60;;;9.13;;
75499;SDS011;64076;51.466;7.260;2023-12-20T02:38:25;16.40;;;9.67;;
75499;SDS011;64076;51.466;7.260;2023-12-20T02:40:51;15.50;;;9.85;;
75499;SDS011;64076;51.466;7.260;2023-12-20T02:43:16;13.43;;;9.03;;
75499;SDS011;64076;51.466;7.260;2023-12-20T02:45:42;14.00;;;8.87;;
75499;SDS011;64076;51.466;7.260;2023-12-20T02:48:07;14.50;;;9.18;;
75499;SDS011;64076;51.466;7.260;2023-12-20T02:50:33;16.20;;;9.67;;
75499;SDS011;64076;51.466;7.260;2023-12-20T02:52:59;15.82;;;9.57;;
75499;SDS011;64076;51.466;7.260;2023-12-20T02:55:24;15.80;;;9.50;;
75499;SDS011;64076;51.466;7.260;2023-12-20T02:57:50;15.07;;;9.40;;
75499;SDS011;64076;51.466;7.260;2023-12-20T03:00:15;15.10;;;9.55;;
75499;SDS011;64076;51.466;7.260;2023-12-20T03:02:41;14.53;;;9.60;;
75499;SDS011;64076;51.466;7.260;2023-12-20T03:05:07;15.63;;;9.70;;
75499;SDS011;64076;51.466;7.260;2023-12-20T03:07:32;15.93;;;9.60;;
75499;SDS011;64076;51.466;7.260;2023-12-20T03:09:58;14.43;;;8.53;;
75499;SDS011;64076;51.466;7.260;2023-12-20T03:12:23;13.68;;;9.35;;
75499;SDS011;64076;51.466;7.260;2023-12-20T03:14:49;16.27;;;9.10;;
75499;SDS011;64076;51.466;7.260;2023-12-20T03:17:14;15.73;;;9.80;;
75499;SDS011;64076;51.466;7.260;2023-12-20T03:19:40;14.75;;;9.20;;
75499;SDS011;64076;51.466;7.260;2023-12-20T03:22:05;15.30;;;9.40;;
75499;SDS011;64076;51.466;7.260;2023-12-20T03:24:31;15.97;;;9.70;;
75499;SDS011;64076;51.466;7.260;2023-12-20T03:26:56;15.20;;;9.25;;
75499;SDS011;64076;51.466;7.260;2023-12-20T03:29:22;16.87;;;9.73;;
75499;SDS011;64076;51.466;7.260;2023-12-20T03:31:48;15.13;;;8.93;;
75499;SDS011;64076;51.466;7.260;2023-12-20T03:34:13;14.57;;;9.13;;
75499;SDS011;64076;51.466;7.260;2023-12-20T03:36:39;16.77;;;9.20;;
75499;SDS011;64076;51.466;7.260;2023-12-20T03:39:05;14.57;;;8.75;;
75499;SDS011;64076;51.466;7.260;2023-12-20T03:41:30;14.00;;;9.60;;
75499;SDS011;64076;51.466;7.260;2023-12-20T03:43:56;14.90;;;8.53;;
75499;SDS011;64076;51.466;7.260;2023-12-20T03:46:21;15.00;;;9.43;;
75499;SDS011;64076;51.466;7.260;2023-12-20T03:48:47;14.53;;;9.30;;
75499;SDS011;64076;51.466;7.260;2023-12-20T03:51:12;16.53;;;8.87;;
75499;SDS011;64076;51.466;7.260;2023-12-20T03:53:38;15.70;;;10.27;;
75499;SDS011;64076;51.466;7.260;2023-12-20T03:56:05;16.65;;;9.55;;
75499;SDS011;64076;51.466;7.260;2023-12-20T03:58:31;13.85;;;9.13;;
75499;SDS011;64076;51.466;7.260;2023-12-20T04:00:57;15.53;;;9.13;;
75499;SDS011;64076;51.466;7.260;2023-12-20T04:03:22;15.35;;;9.23;;
75499;SDS011;64076;51.466;7.260;2023-12-20T04:05:48;14.80;;;9.33;;
75499;SDS011;64076;51.466;7.260;2023-12-20T04:08:13;15.07;;;9.00;;
75499;SDS011;64076;51.466;7.260;2023-12-20T04:10:39;15.63;;;9.45;;
75499;SDS011;64076;51.466;7.260;2023-12-20T04:13:04;15.10;;;9.30;;
75499;SDS011;64076;51.466;7.260;2023-12-20T04:15:30;13.47;;;8.93;;
75499;SDS011;64076;51.466;7.260;2023-12-20T04:17:55;14.43;;;8.63;;
75499;SDS011;64076;51.466;7.260;2023-12-20T04:20:21;15.47;;;8.63;;
75499;SDS011;64076;51.466;7.260;2023-12-20T04:22:46;14.27;;;8.93;;
75499;SDS011;64076;51.466;7.260;2023-12-20T04:25:12;14.10;;;8.35;;
75499;SDS011;64076;51.466;7.260;2023-12-20T04:27:37;14.50;;;9.10;;
75499;SDS011;64076;51.466;7.260;2023-12-20T04:30:03;15.47;;;9.30;;
75499;SDS011;64076;51.466;7.260;2023-12-20T04:32:29;15.00;;;9.07;;
75499;SDS011;64076;51.466;7.260;2023-12-20T04:34:55;15.50;;;9.20;;
75499;SDS011;64076;51.466;7.260;2023-12-20T04:37:20;13.63;;;8.63;;
75499;SDS011;64076;51.466;7.260;2023-12-20T04:39:46;13.90;;;8.67;;
75499;SDS011;64076;51.466;7.260;2023-12-20T04:42:11;13.60;;;7.90;;
75499;SDS011;64076;51.466;7.260;2023-12-20T04:44:37;15.03;;;8.67;;
75499;SDS011;64076;51.466;7.260;2023-12-20T04:47:02;12.37;;;7.77;;
75499;SDS011;64076;51.466;7.260;2023-12-20T04:49:28;13.52;;;8.23;;
75499;SDS011;64076;51.466;7.260;2023-12-20T04:51:54;14.43;;;8.77;;
75499;SDS011;64076;51.466;7.260;2023-12-20T04:54:20;13.82;;;8.70;;
75499;SDS011;64076;51.466;7.260;2023-12-20T04:56:46;15.57;;;8.27;;
75499;SDS011;64076;51.466;7.260;2023-12-20T04:59:11;13.63;;;8.80;;
75499;SDS011;64076;51.466;7.260;2023-12-20T05:01:37;15.00;;;8.47;;
75499;SDS011;64076;51.466;7.260;2023-12-20T05:04:02;14.60;;;8.73;;
75499;SDS011;64076;51.466;7.260;2023-12-20T05:06:28;14.97;;;9.03;;
75499;SDS011;64076;51.466;7.260;2023-12-20T05:08:54;14.60;;;8.73;;
75499;SDS011;64076;51.466;7.260;2023-12-20T05:11:19;13.70;;;8.40;;
75499;SDS011;64076;51.466;7.260;2023-12-20T05:13:45;13.97;;;8.60;;
75499;SDS011;64076;51.466;7.260;2023-12-20T05:16:10;13.50;;;7.97;;
75499;SDS011;64076;51.466;7.260;2023-12-20T05:18:36;14.20;;;8.57;;
75499;SDS011;64076;51.466;7.260;2023-12-20T05:21:02;13.23;;;7.93;;
75499;SDS011;64076;51.466;7.260;2023-12-20T05:23:27;13.77;;;8.00;;
75499;SDS011;64076;51.466;7.260;2023-12-20T05:25:53;13.53;;;8.03;;
75499;SDS011;64076;51.466;7.260;2023-12-20T05:28:18;13.90;;;8.65;;
75499;SDS011;64076;51.466;7.260;2023-12-20T05:30:44;13.10;;;7.63;;
75499;SDS011;64076;51.466;7.260;2023-12-20T05:33:09;12.83;;;8.23;;
75499;SDS011;64076;51.466;7.260;2023-12-20T05:35:35;13.60;;;7.95;;
75499;SDS011;64076;51.466;7.260;2023-12-20T05:38:00;13.33;;;7.63;;
75499;SDS011;64076;51.466;7.260;2023-12-20T05:40:26;13.97;;;8.17;;
75499;SDS011;64076;51.466;7.260;2023-12-20T05:42:52;12.40;;;7.82;;
75499;SDS011;64076;51.466;7.260;2023-12-20T05:45:17;13.50;;;8.27;;
75499;SDS011;64076;51.466;7.260;2023-12-20T05:47:43;12.37;;;7.70;;
75499;SDS011;64076;51.466;7.260;2023-12-20T05:50:08;14.68;;;8.55;;
75499;SDS011;64076;51.466;7.260;2023-12-20T05:52:34;13.33;;;7.70;;
75499;SDS011;64076;51.466;7.260;2023-12-20T05:54:59;13.37;;;8.10;;
75499;SDS011;64076;51.466;7.260;2023-12-20T05:57:26;14.60;;;8.35;;
75499;SDS011;64076;51.466;7.260;2023-12-20T05:59:52;13.70;;;8.32;;
75499;SDS011;64076;51.466;7.260;2023-12-20T06:02:17;12.57;;;8.03;;
75499;SDS011;64076;51.466;7.260;2023-12-20T06:04:43;13.98;;;8.07;;
75499;SDS011;64076;51.466;7.260;2023-12-20T06:07:11;11.33;;;7.63;;
75499;SDS011;64076;51.466;7.260;2023-12-20T06:09:37;14.23;;;8.27;;
75499;SDS011;64076;51.466;7.260;2023-12-20T06:12:02;13.77;;;7.87;;
75499;SDS011;64076;51.466;7.260;2023-12-20T06:14:28;11.82;;;7.30;;
75499;SDS011;64076;51.466;7.260;2023-12-20T06:16:55;11.15;;;7.03;;
75499;SDS011;64076;51.466;7.260;2023-12-20T06:19:21;11.83;;;6.37;;
75499;SDS011;64076;51.466;7.260;2023-12-20T06:21:47;10.18;;;6.22;;
75499;SDS011;64076;51.466;7.260;2023-12-20T06:24:12;10.80;;;6.43;;
75499;SDS011;64076;51.466;7.260;2023-12-20T06:26:38;9.93;;;6.20;;
75499;SDS011;64076;51.466;7.260;2023-12-20T06:29:03;12.73;;;6.77;;
75499;SDS011;64076;51.466;7.260;2023-12-20T06:31:29;10.40;;;6.00;;
75499;SDS011;64076;51.466;7.260;2023-12-20T06:33:55;9.70;;;5.95;;
75499;SDS011;64076;51.466;7.260;2023-12-20T06:36:23;9.63;;;5.97;;
75499;SDS011;64076;51.466;7.260;2023-12-20T06:38:49;9.65;;;5.72;;
75499;SDS011;64076;51.466;7.260;2023-12-20T06:41:15;7.65;;;5.40;;
75499;SDS011;64076;51.466;7.260;2023-12-20T06:43:41;8.43;;;5.47;;
75499;SDS011;64076;51.466;7.260;2023-12-20T06:46:07;7.90;;;5.57;;
75499;SDS011;64076;51.466;7.260;2023-12-20T06:48:32;8.27;;;5.50;;
75499;SDS011;64076;51.466;7.260;2023-12-20T06:50:59;8.60;;;5.22;;
75499;SDS011;64076;51.466;7.260;2023-12-20T06:53:27;7.65;;;5.53;;
75499;SDS011;64076;51.466;7.260;2023-12-20T06:55:52;8.23;;;5.23;;
75499;SDS011;64076;51.466;7.260;2023-12-20T06:58:18;6.40;;;5.00;;
75499;SDS011;64076;51.466;7.260;2023-12-20T07:00:43;8.77;;;5.10;;
75499;SDS011;64076;51.466;7.260;2023-12-20T07:03:09;7.88;;;5.03;;
75499;SDS011;64076;51.466;7.260;2023-12-20T07:05:35;7.07;;;5.30;;
75499;SDS011;64076;51.466;7.260;2023-12-20T07:08:00;7.38;;;5.38;;
75499;SDS011;64076;51.466;7.260;2023-12-20T07:10:26;7.10;;;4.80;;
75499;SDS011;64076;51.466;7.260;2023-12-20T07:12:51;7.37;;;4.90;;
75499;SDS011;64076;51.466;7.260;2023-12-20T07:15:20;5.78;;;4.55;;
75499;SDS011;64076;51.466;7.260;2023-12-20T07:17:46;6.68;;;4.57;;
75499;SDS011;64076;51.466;7.260;2023-12-20T07:20:11;6.10;;;4.60;;
75499;SDS011;64076;51.466;7.260;2023-12-20T07:22:37;6.22;;;4.72;;
75499;SDS011;64076;51.466;7.260;2023-12-20T07:25:03;5.50;;;4.33;;
75499;SDS011;64076;51.466;7.260;2023-12-20T07:27:28;6.05;;;4.72;;
75499;SDS011;64076;51.466;7.260;2023-12-20T07:29:54;7.00;;;4.97;;
75499;SDS011;64076;51.466;7.260;2023-12-20T07:32:19;5.03;;;4.30;;
75499;SDS011;64076;51.466;7.260;2023-12-20T07:34:48;6.75;;;4.85;;
75499;SDS011;64076;51.466;7.260;2023-12-20T07:37:13;5.03;;;4.37;;
75499;SDS011;64076;51.466;7.260;2023-12-20T07:39:39;6.07;;;4.57;;
75499;SDS011;64076;51.466;7.260;2023-12-20T07:42:05;5.78;;;4.28;;
75499;SDS011;64076;51.466;7.260;2023-12-20T07:44:32;4.97;;;4.10;;
75499;SDS011;64076;51.466;7.260;2023-12-20T07:46:57;6.10;;;4.53;;
75499;SDS011;64076;51.466;7.260;2023-12-20T07:49:23;5.70;;;4.23;;
75499;SDS011;64076;51.466;7.260;2023-12-20T07:51:51;7.28;;;4.30;;
75499;SDS011;64076;51.466;7.260;2023-12-20T07:54:17;7.47;;;3.90;;
75499;SDS011;64076;51.466;7.260;2023-12-20T07:56:42;7.45;;;4.28;;
75499;SDS011;64076;51.466;7.260;2023-12-20T07:59:08;5.97;;;3.93;;
75499;SDS011;64076;51.466;7.260;2023-12-20T08:01:36;8.02;;;3.80;;
75499;SDS011;64076;51.466;7.260;2023-12-20T08:04:02;15.70;;;4.13;;
75499;SDS011;64076;51.466;7.260;2023-12-20T08:06:27;7.80;;;4.43;;
75499;SDS011;64076;51.466;7.260;2023-12-20T08:08:53;10.80;;;3.60;;
75499;SDS011;64076;51.466;7.260;2023-12-20T08:11:18;9.65;;;3.92;;
75499;SDS011;64076;51.466;7.260;2023-12-20T08:13:44;8.17;;;4.03;;
75499;SDS011;64076;51.466;7.260;2023-12-20T08:16:09;5.43;;;3.70;;
75499;SDS011;64076;51.466;7.260;2023-12-20T08:18:38;7.38;;;3.78;;
75499;SDS011;64076;51.466;7.260;2023-12-20T08:21:04;5.38;;;3.58;;
75499;SDS011;64076;51.466;7.260;2023-12-20T08:23:32;4.33;;;3.80;;
75499;SDS011;64076;51.466;7.260;2023-12-20T08:25:58;6.22;;;4.03;;
75499;SDS011;64076;51.466;7.260;2023-12-20T08:28:23;5.30;;;4.00;;
75499;SDS011;64076;51.466;7.260;2023-12-20T08:30:49;5.67;;;3.70;;
75499;SDS011;64076;51.466;7.260;2023-12-20T08:33:18;6.28;;;3.50;;
75499;SDS011;64076;51.466;7.260;2023-12-20T08:35:44;4.60;;;3.65;;
75499;SDS011;64076;51.466;7.260;2023-12-20T08:38:09;4.03;;;3.57;;
75499;SDS011;64076;51.466;7.260;2023-12-20T08:40:35;6.83;;;3.80;;
75499;SDS011;64076;51.466;7.260;2023-12-20T08:43:00;4.80;;;3.70;;
75499;SDS011;64076;51.466;7.260;2023-12-20T08:45:26;5.33;;;3.50;;
75499;SDS011;64076;51.466;7.260;2023-12-20T08:47:51;4.50;;;3.47;;
75499;SDS011;64076;51.466;7.260;2023-12-20T08:50:17;4.57;;;3.50;;
75499;SDS011;64076;51.466;7.260;2023-12-20T08:52:43;4.07;;;3.33;;
75499;SDS011;64076;51.466;7.260;2023-12-20T08:55:08;5.10;;;4.03;;
75499;SDS011;64076;51.466;7.260;2023-12-20T08:57:35;4.50;;;3.47;;
75499;SDS011;64076;51.466;7.260;2023-12-20T09:00:01;4.03;;;3.40;;
75499;SDS011;64076;51.466;7.260;2023-12-20T09:02:28;4.27;;;3.53;;
75499;SDS011;64076;51.466;7.260;2023-12-20T09:04:53;4.13;;;3.15;;
75499;SDS011;64076;51.466;7.260;2023-12-20T09:07:23;4.05;;;3.47;;
75499;SDS011;64076;51.466;7.260;2023-12-20T09:09:50;4.68;;;3.67;;
75499;SDS011;64076;51.466;7.260;2023-12-20T09:12:19;6.27;;;3.87;;
75499;SDS011;64076;51.466;7.260;2023-12-20T09:14:46;5.32;;;3.58;;
75499;SDS011;64076;51.466;7.260;2023-12-20T09:17:14;5.47;;;3.90;;
75499;SDS011;64076;51.466;7.260;2023-12-20T09:19:41;4.70;;;3.58;;
75499;SDS011;64076;51.466;7.260;2023-12-20T09:22:08;6.00;;;3.85;;
75499;SDS011;64076;51.466;7.260;2023-12-20T09:24:34;4.83;;;3.50;;
75499;SDS011;64076;51.466;7.260;2023-12-20T09:27:00;4.83;;;3.80;;
75499;SDS011;64076;51.466;7.260;2023-12-20T09:29:25;4.65;;;3.78;;
75499;SDS011;64076;51.466;7.260;2023-12-20T09:31:51;6.47;;;3.60;;
75499;SDS011;64076;51.466;7.260;2023-12-20T09:34:16;7.88;;;3.40;;
75499;SDS011;64076;51.466;7.260;2023-12-20T09:36:42;9.63;;;3.60;;
75499;SDS011;64076;51.466;7.260;2023-12-20T09:39:18;9.85;;;4.15;;
75499;SDS011;64076;51.466;7.260;2023-12-20T09:41:45;6.88;;;3.58;;
75499;SDS011;64076;51.466;7.260;2023-12-20T09:44:34;4.27;;;3.10;;
75499;SDS011;64076;51.466;7.260;2023-12-20T09:47:02;5.90;;;3.60;;
75499;SDS011;64076;51.466;7.260;2023-12-20T09:49:28;5.28;;;3.47;;
75499;SDS011;64076;51.466;7.260;2023-12-20T09:51:55;7.10;;;3.30;;
75499;SDS011;64076;51.466;7.260;2023-12-20T09:54:21;4.68;;;3.20;;
75499;SDS011;64076;51.466;7.260;2023-12-20T09:56:47;7.87;;;3.40;;
75499;SDS011;64076;51.466;7.260;2023-12-20T09:59:14;4.65;;;3.30;;
75499;SDS011;64076;51.466;7.260;2023-12-20T10:01:40;5.15;;;3.30;;
75499;SDS011;64076;51.466;7.260;2023-12-20T10:04:06;5.30;;;3.10;;
75499;SDS011;64076;51.466;7.260;2023-12-20T10:06:37;5.03;;;3.00;;
75499;SDS011;64076;51.466;7.260;2023-12-20T10:09:04;4.88;;;3.05;;
75499;SDS011;64076;51.466;7.260;2023-12-20T10:11:30;3.83;;;2.83;;
75499;SDS011;64076;51.466;7.260;2023-12-20T10:13:59;4.07;;;3.00;;
75499;SDS011;64076;51.466;7.260;2023-12-20T10:16:28;3.80;;;2.83;;
75499;SDS011;64076;51.466;7.260;2023-12-20T10:18:54;3.57;;;2.83;;
75499;SDS011;64076;51.466;7.260;2023-12-20T10:21:20;3.78;;;2.88;;
75499;SDS011;64076;51.466;7.260;2023-12-20T10:23:47;5.05;;;3.30;;
75499;SDS011;64076;51.466;7.260;2023-12-20T10:26:27;4.40;;;2.90;;
75499;SDS011;64076;51.466;7.260;2023-12-20T10:28:53;3.90;;;2.60;;
75499;SDS011;64076;51.466;7.260;2023-12-20T10:31:26;5.47;;;2.78;;
75499;SDS011;64076;51.466;7.260;2023-12-20T10:33:53;7.70;;;3.20;;
75499;SDS011;64076;51.466;7.260;2023-12-20T10:36:20;5.10;;;2.80;;
75499;SDS011;64076;51.466;7.260;2023-12-20T10:38:48;4.72;;;3.00;;
75499;SDS011;64076;51.466;7.260;2023-12-20T10:41:17;4.33;;;2.77;;
75499;SDS011;64076;51.466;7.260;2023-12-20T10:43:50;6.22;;;2.67;;
75499;SDS011;64076;51.466;7.260;2023-12-20T10:46:17;3.97;;;2.53;;
75499;SDS011;64076;51.466;7.260;2023-12-20T10:48:44;3.42;;;2.60;;
75499;SDS011;64076;51.466;7.260;2023-12-20T10:51:11;4.78;;;2.80;;
75499;SDS011;64076;51.466;7.260;2023-12-20T10:53:42;3.90;;;2.90;;
75499;SDS011;64076;51.466;7.260;2023-12-20T10:56:08;3.88;;;2.60;;
75499;SDS011;64076;51.466;7.260;2023-12-20T10:58:40;3.95;;;2.70;;
75499;SDS011;64076;51.466;7.260;2023-12-20T11:01:08;4.32;;;2.70;;
75499;SDS011;64076;51.466;7.260;2023-12-20T11:03:35;5.30;;;2.85;;
75499;SDS011;64076;51.466;7.260;2023-12-20T11:06:09;3.50;;;2.60;;
75499;SDS011;64076;51.466;7.260;2023-12-20T11:09:07;3.92;;;2.70;;
75499;SDS011;64076;51.466;7.260;2023-12-20T11:17:16;4.38;;;2.70;;
75499;SDS011;64076;51.466;7.260;2023-12-20T11:22:24;3.95;;;2.67;;
75499;SDS011;64076;51.466;7.260;2023-12-20T11:24:51;7.47;;;2.60;;
75499;SDS011;64076;51.466;7.260;2023-12-20T11:27:18;5.68;;;2.90;;
75499;SDS011;64076;51.466;7.260;2023-12-20T11:29:51;4.32;;;2.75;;
75499;SDS011;64076;51.466;7.260;2023-12-20T11:34:56;10.18;;;2.90;;
75499;SDS011;64076;51.466;7.260;2023-12-20T11:37:28;4.75;;;2.88;;
75499;SDS011;64076;51.466;7.260;2023-12-20T11:40:00;8.02;;;2.88;;
75499;SDS011;64076;51.466;7.260;2023-12-20T11:42:27;5.43;;;2.75;;
75499;SDS011;64076;51.466;7.260;2023-12-20T11:44:53;6.93;;;2.13;;
75499;SDS011;64076;51.466;7.260;2023-12-20T11:47:18;6.37;;;2.93;;
75499;SDS011;64076;51.466;7.260;2023-12-20T11:49:46;4.82;;;3.00;;
75499;SDS011;64076;51.466;7.260;2023-12-20T11:52:13;6.72;;;3.10;;
75499;SDS011;64076;51.466;7.260;2023-12-20T11:54:39;4.53;;;3.00;;
75499;SDS011;64076;51.466;7.260;2023-12-20T11:57:04;5.22;;;2.88;;
75499;SDS011;64076;51.466;7.260;2023-12-20T11:59:31;4.65;;;2.90;;
75499;SDS011;64076;51.466;7.260;2023-12-20T12:01:58;5.93;;;3.30;;
75499;SDS011;64076;51.466;7.260;2023-12-20T12:04:26;5.88;;;3.10;;
75499;SDS011;64076;51.466;7.260;2023-12-20T12:06:53;7.30;;;3.27;;
75499;SDS011;64076;51.466;7.260;2023-12-20T12:09:19;5.38;;;3.10;;
75499;SDS011;64076;51.466;7.260;2023-12-20T12:11:44;7.13;;;3.53;;
75499;SDS011;64076;51.466;7.260;2023-12-20T12:14:10;4.32;;;2.80;;
75499;SDS011;64076;51.466;7.260;2023-12-20T12:16:36;5.10;;;3.27;;
75499;SDS011;64076;51.466;7.260;2023-12-20T12:19:01;5.32;;;3.72;;
75499;SDS011;64076;51.466;7.260;2023-12-20T12:21:27;6.10;;;3.43;;
75499;SDS011;64076;51.466;7.260;2023-12-20T12:23:52;6.70;;;3.40;;
75499;SDS011;64076;51.466;7.260;2023-12-20T12:26:18;5.38;;;3.35;;
75499;SDS011;64076;51.466;7.260;2023-12-20T12:28:44;5.50;;;3.30;;
75499;SDS011;64076;51.466;7.260;2023-12-20T12:31:13;5.40;;;3.70;;
75499;SDS011;64076;51.466;7.260;2023-12-20T12:33:40;5.60;;;3.30;;
75499;SDS011;64076;51.466;7.260;2023-12-20T12:36:06;4.72;;;3.22;;
75499;SDS011;64076;51.466;7.260;2023-12-20T12:38:32;4.60;;;3.55;;
75499;SDS011;64076;51.466;7.260;2023-12-20T12:40:59;7.20;;;3.75;;
75499;SDS011;64076;51.466;7.260;2023-12-20T12:43:25;5.40;;;3.07;;
75499;SDS011;64076;51.466;7.260;2023-12-20T12:45:51;5.53;;;3.50;;
75499;SDS011;64076;51.466;7.260;2023-12-20T12:48:18;5.50;;;3.35;;
75499;SDS011;64076;51.466;7.260;2023-12-20T12:50:45;5.73;;;3.60;;
75499;SDS011;64076;51.466;7.260;2023-12-20T12:53:11;4.22;;;3.40;;
75499;SDS011;64076;51.466;7.260;2023-12-20T12:55:36;7.53;;;4.03;;
75499;SDS011;64076;51.466;7.260;2023-12-20T12:58:02;5.82;;;3.63;;
75499;SDS011;64076;51.466;7.260;2023-12-20T13:00:27;5.33;;;3.90;;
75499;SDS011;64076;51.466;7.260;2023-12-20T13:02:53;5.23;;;4.03;;
75499;SDS011;64076;51.466;7.260;2023-12-20T13:05:18;5.22;;;3.67;;
75499;SDS011;64076;51.466;7.260;2023-12-20T13:07:44;6.07;;;3.67;;
75499;SDS011;64076;51.466;7.260;2023-12-20T13:10:10;5.57;;;3.85;;
75499;SDS011;64076;51.466;7.260;2023-12-20T13:12:36;4.67;;;3.30;;
75499;SDS011;64076;51.466;7.260;2023-12-20T13:15:02;5.50;;;3.28;;
75499;SDS011;64076;51.466;7.260;2023-12-20T13:17:29;4.80;;;3.77;;
75499;SDS011;64076;51.466;7.260;2023-12-20T13:19:54;4.78;;;3.63;;
75499;SDS011;64076;51.466;7.260;2023-12-20T13:22:20;6.17;;;3.90;;
75499;SDS011;64076;51.466;7.260;2023-12-20T13:24:45;4.78;;;3.40;;
75499;SDS011;64076;51.466;7.260;2023-12-20T13:27:11;4.47;;;3.50;;
75499;SDS011;64076;51.466;7.260;2023-12-20T13:29:37;5.07;;;3.60;;
75499;SDS011;64076;51.466;7.260;2023-12-20T13:32:02;6.43;;;4.10;;
75499;SDS011;64076;51.466;7.260;2023-12-20T13:34:28;4.95;;;3.58;;
75499;SDS011;64076;51.466;7.260;2023-12-20T13:36:54;7.33;;;3.80;;
75499;SDS011;64076;51.466;7.260;2023-12-20T13:39:20;5.30;;;4.00;;
75499;SDS011;64076;51.466;7.260;2023-12-20T13:41:46;5.07;;;4.03;;
75499;SDS011;64076;51.466;7.260;2023-12-20T13:44:12;6.72;;;4.38;;
75499;SDS011;64076;51.466;7.260;2023-12-20T13:46:41;5.55;;;3.70;;
75499;SDS011;64076;51.466;7.260;2023-12-20T13:49:06;9.77;;;4.35;;
75499;SDS011;64076;51.466;7.260;2023-12-20T13:51:32;5.87;;;4.07;;
75499;SDS011;64076;51.466;7.260;2023-12-20T13:53:57;6.73;;;4.40;;
75499;SDS011;64076;51.466;7.260;2023-12-20T13:56:24;7.57;;;4.55;;
75499;SDS011;64076;51.466;7.260;2023-12-20T13:58:52;10.27;;;4.57;;
75499;SDS011;64076;51.466;7.260;2023-12-20T14:01:18;6.78;;;4.53;;
75499;SDS011;64076;51.466;7.260;2023-12-20T14:03:43;7.27;;;4.37;;
75499;SDS011;64076;51.466;7.260;2023-12-20T14:06:09;8.25;;;4.35;;
75499;SDS011;64076;51.466;7.260;2023-12-20T14:08:34;11.70;;;4.57;;
75499;SDS011;64076;51.466;7.260;2023-12-20T14:11:01;8.60;;;4.32;;
75499;SDS011;64076;51.466;7.260;2023-12-20T14:13:26;8.48;;;4.53;;
75499;SDS011;64076;51.466;7.260;2023-12-20T14:15:52;8.23;;;3.97;;
75499;SDS011;64076;51.466;7.260;2023-12-20T14:18:19;10.63;;;4.25;;
75499;SDS011;64076;51.466;7.260;2023-12-20T14:20:45;6.30;;;4.03;;
75499;SDS011;64076;51.466;7.260;2023-12-20T14:23:12;7.28;;;4.13;;
75499;SDS011;64076;51.466;7.260;2023-12-20T14:25:39;7.82;;;3.75;;
75499;SDS011;64076;51.466;7.260;2023-12-20T14:28:06;7.10;;;3.83;;
75499;SDS011;64076;51.466;7.260;2023-12-20T14:30:32;9.60;;;4.17;;
75499;SDS011;64076;51.466;7.260;2023-12-20T14:32:57;5.97;;;3.57;;
75499;SDS011;64076;51.466;7.260;2023-12-20T14:35:23;6.38;;;3.60;;
75499;SDS011;64076;51.466;7.260;2023-12-20T14:37:49;5.75;;;3.50;;
75499;SDS011;64076;51.466;7.260;2023-12-20T14:40:15;5.50;;;3.47;;
75499;SDS011;64076;51.466;7.260;2023-12-20T14:42:41;5.03;;;3.50;;
75499;SDS011;64076;51.466;7.260;2023-12-20T14:45:10;4.45;;;3.60;;